Almaty, Kazakhstan

1:29 AM ALMT on September 02, 2014 (GMT +0600)
Almaty | Change Station
CLOSE
Current Station
Airport
Location: Almaty,
Elevation: 2231 ft
Nearby Weather Stations

Elev 2231 ft 43.35 °N, 77.04 °E | Updated 29 minutes ago

Scattered Clouds
Scattered Clouds
73 °F
Feels Like 73 °F
N
9
Wind Variable Wind from South

Today
High -- | Low -- °F
--% Chance of Precip.
Yesterday
High -- | Low -- °F
Precip. -- in
6:17 AM 7:26 PM
Waxing Crescent, 43% visible
Pressure 29.83 in
Visibility 6.2 miles
Clouds Scattered Clouds 20000 ft
Dew Point 25 °F
Humidity 16%
Rainfall 0.00 in
Snow Depth Not available.
UV 0 out of 12
Pollen Not available.
Air Quality Not available.
Flu Activity Not available.
METAR UAAA 011900Z 19004MPS 9999 SCT200 23/M04 Q1010 R88/CLRD65 NOSIG

More Conditions Fewer Conditions

Pressure 29.83 in
Visibility 6.2 miles
Clouds Scattered Clouds 20000 ft
Dew Point 25 °F
Humidity 16%
Rainfall 0.00 in
Snow Depth Not available.
UV 0 out of 12
Pollen Not available.
Air Quality Not available.
Flu Activity Not available.
METAR UAAA 011900Z 19004MPS 9999 SCT200 23/M04 Q1010 R88/CLRD65 NOSIG

More Conditions Fewer Conditions

10-Day Weather Forecast

Almanac

Astronomy

Sep. 02, 2014 Rise Set
Actual Time 6:17 AM ALMT 7:26 PM ALMT
Civil Twilight 5:47 AM ALMT 7:55 PM ALMT
Nautical Twilight 5:12 AM ALMT 8:30 PM ALMT
Astronomical Twilight 4:35 AM ALMT 9:07 PM ALMT
Moon 1:45 PM ALMT (9/2) 11:43 PM ALMT (9/2)
Length of Visible Light 14h 07m
Length of Day
13h 09m
Tomorrow will be 2m 51s shorter.
Waxing Crescent, 43% of the Moon is Illuminated
Sep 1
Waxing Crescent
Sep 2
First Quarter
Sep 8
Full
Sep 15
Last Quarter
Sep 24
New

Yesterday's Extremes

Country Highs Country Lows

Community

WunderPhotos

Upload Photos

1,749,378 photos uploaded!

WunderBlogs® & News

Nearby

Snow Depth

Not available.

Earthquake Activity

City Distance Mag. Time & Date
No recent earthquake activity has been reported nearby.
Minimum magnitude displayed is 2.5.

Coastal Water Temperatures

Place Temperature
No Stations Reporting

Nearby Weather Stations